Time;durP1;ratioP1;P1;durP2;ratioP2;P2;SDS_P1;SDS_P2;PMS_P1;PMS_P2;Temp;Humidity;BMP_temperature;BMP_pressure;BME280_temperature;BME280_humidity;BME280_pressure;Samples;Min_cycle;Max_cycle;Signal;HPM_P1;HPM_P2
2022/01/30 00:02:17;;;;;;;6.72;3.40;;;18.30;45.50;;;;;;4974025;28;20281;-63
2022/01/30 00:04:44;;;;;;;6.13;3.90;;;18.30;46.50;;;;;;4972942;28;20202;-64
2022/01/30 00:07:11;;;;;;;7.32;3.25;;;18.20;45.60;;;;;;4973860;28;20209;-64
2022/01/30 00:09:40;;;;;;;7.60;4.05;;;18.20;45.40;;;;;;4973239;28;20301;-64
2022/01/30 00:12:08;;;;;;;6.82;3.65;;;18.20;45.50;;;;;;4976275;28;20218;-64
2022/01/30 00:14:37;;;;;;;9.48;4.68;;;18.20;45.60;;;;;;4976385;28;20198;-63
2022/01/30 00:17:10;;;;;;;11.23;4.63;;;18.20;46.60;;;;;;4976217;28;20195;-62
2022/01/30 00:19:42;;;;;;;7.40;3.72;;;18.10;46.80;;;;;;4977571;28;20613;-63
2022/01/30 00:22:25;;;;;;;7.82;3.85;;;18.10;46.90;;;;;;4976001;28;20233;-63
2022/01/30 00:24:57;;;;;;;6.85;3.63;;;18.10;46.80;;;;;;4976021;28;20194;-63
2022/01/30 00:27:30;;;;;;;6.47;3.60;;;18.00;46.80;;;;;;4976078;28;20210;-62
2022/01/30 00:29:57;;;;;;;5.95;3.50;;;18.00;46.90;;;;;;4977208;28;20178;-63
2022/01/30 00:32:25;;;;;;;7.32;3.00;;;18.00;46.90;;;;;;4975984;28;20702;-63
2022/01/30 00:34:52;;;;;;;5.00;3.17;;;17.90;46.90;;;;;;4975903;28;20229;-63
2022/01/30 00:37:20;;;;;;;6.57;3.45;;;17.90;46.90;;;;;;4976650;28;20190;-63
2022/01/30 00:39:47;;;;;;;7.05;3.35;;;17.90;47.50;;;;;;4975677;28;20206;-63
2022/01/30 00:42:17;;;;;;;7.28;3.30;;;17.90;46.50;;;;;;4976880;28;20241;-62
2022/01/30 00:44:44;;;;;;;6.18;3.47;;;17.90;46.20;;;;;;4975721;28;20209;-63
2022/01/30 00:47:13;;;;;;;5.88;3.13;;;17.90;46.30;;;;;;4959295;28;20237;-63
2022/01/30 00:49:41;;;;;;;5.15;3.08;;;17.90;46.20;;;;;;4975254;28;20305;-63
2022/01/30 00:52:10;;;;;;;6.00;3.20;;;17.80;46.20;;;;;;4975108;28;20281;-63
2022/01/30 00:54:38;;;;;;;6.97;3.17;;;17.80;46.20;;;;;;4975205;28;20578;-63
2022/01/30 00:57:06;;;;;;;6.63;3.60;;;17.80;46.10;;;;;;4975336;28;20202;-63
2022/01/30 00:59:34;;;;;;;6.05;3.60;;;17.90;46.20;;;;;;4975150;28;20202;-63
2022/01/30 01:02:01;;;;;;;5.65;3.10;;;17.80;46.00;;;;;;4975135;28;20270;-63
2022/01/30 01:04:28;;;;;;;5.82;2.88;;;17.80;46.20;;;;;;4975815;28;20496;-63
2022/01/30 01:06:56;;;;;;;5.93;3.10;;;17.80;46.10;;;;;;4977650;28;20247;-63
2022/01/30 01:09:29;;;;;;;4.90;3.15;;;17.80;46.10;;;;;;4976216;28;20206;-63
2022/01/30 01:12:28;;;;;;;5.53;3.30;;;17.80;46.20;;;;;;4975052;28;20644;-63
2022/01/30 01:23:25;;;;;;;6.13;3.53;;;17.70;46.20;;;;;;4974817;28;20295;-63
2022/01/30 01:25:53;;;;;;;6.43;3.45;;;17.70;46.20;;;;;;4974297;28;20190;-63
2022/01/30 01:28:20;;;;;;;8.18;3.40;;;17.70;46.30;;;;;;4975468;28;20221;-63
2022/01/30 01:30:49;;;;;;;7.20;3.53;;;17.70;46.40;;;;;;4974210;28;20198;-63
2022/01/30 01:33:17;;;;;;;7.43;3.75;;;17.70;46.70;;;;;;4974367;28;20237;-63
2022/01/30 01:35:44;;;;;;;7.20;3.33;;;17.70;46.80;;;;;;4974260;28;20235;-63
2022/01/30 01:38:12;;;;;;;7.68;3.40;;;17.70;46.90;;;;;;4974320;28;20202;-63
2022/01/30 01:40:40;;;;;;;8.52;3.60;;;17.70;47.10;;;;;;4974374;28;20684;-63
2022/01/30 01:43:08;;;;;;;5.53;3.40;;;17.60;47.00;;;;;;4974355;28;20226;-63
2022/01/30 01:45:38;;;;;;;6.60;3.63;;;17.70;47.10;;;;;;4974330;28;20281;-63
2022/01/30 01:48:11;;;;;;;6.90;3.00;;;17.60;47.00;;;;;;4974456;28;20629;-63
2022/01/30 01:50:39;;;;;;;5.68;3.17;;;17.60;47.10;;;;;;4958126;28;20540;-63
2022/01/30 01:53:10;;;;;;;5.55;3.33;;;17.60;47.10;;;;;;4974158;28;20706;-63
2022/01/30 01:55:37;;;;;;;4.18;2.92;;;17.60;47.00;;;;;;4974300;28;20717;-63
2022/01/30 01:58:04;;;;;;;5.38;3.13;;;17.60;46.90;;;;;;4974203;28;20194;-63
2022/01/30 02:00:42;;;;;;;4.95;3.30;;;17.60;46.90;;;;;;4973929;28;20568;-63
2022/01/30 02:03:11;;;;;;;5.97;3.25;;;17.50;48.80;;;;;;4973676;28;20281;-63
2022/01/30 02:05:40;;;;;;;4.20;2.97;;;17.50;49.20;;;;;;4973953;28;20269;-63
2022/01/30 02:08:35;;;;;;;5.13;2.95;;;17.60;49.70;;;;;;4975241;28;20193;-63
2022/01/30 02:11:06;;;;;;;4.03;2.80;;;17.60;49.80;;;;;;4973786;28;20200;-63
2022/01/30 02:24:55;;;;;;;6.43;3.25;;;17.50;49.30;;;;;;4973769;28;20564;-63
2022/01/30 02:27:26;;;;;;;4.85;2.70;;;17.50;48.80;;;;;;4973404;28;20202;-63
2022/01/30 02:29:53;;;;;;;4.90;2.78;;;17.50;48.70;;;;;;4973162;28;20241;-63
2022/01/30 02:32:20;;;;;;;4.57;2.63;;;17.50;48.50;;;;;;4972708;28;20229;-63
2022/01/30 02:34:47;;;;;;;4.10;2.60;;;17.50;48.40;;;;;;4973338;28;20208;-63
2022/01/30 02:37:16;;;;;;;4.38;2.60;;;17.50;48.20;;;;;;4957428;28;20213;-63
2022/01/30 02:39:43;;;;;;;5.78;3.00;;;17.50;48.20;;;;;;4973335;28;20571;-63
2022/01/30 02:42:17;;;;;;;4.90;2.90;;;17.50;48.20;;;;;;4973123;28;20237;-63
2022/01/30 02:44:50;;;;;;;4.15;2.90;;;17.50;48.20;;;;;;4973353;28;20244;-62
2022/01/30 02:47:25;;;;;;;5.30;2.58;;;17.40;48.10;;;;;;4973152;28;20198;-63
2022/01/30 02:50:12;;;;;;;3.58;2.35;;;17.40;48.00;;;;;;4973269;28;20194;-63
2022/01/30 02:52:41;;;;;;;4.43;2.70;;;17.40;47.90;;;;;;4972923;28;20222;-63
2022/01/30 02:55:09;;;;;;;3.97;2.80;;;17.40;48.10;;;;;;4972956;28;20202;-63
2022/01/30 02:57:38;;;;;;;4.78;2.72;;;17.40;47.90;;;;;;4973171;28;20683;-63
2022/01/30 03:00:06;;;;;;;5.45;2.72;;;17.40;47.80;;;;;;4973226;28;20198;-63
2022/01/30 03:02:33;;;;;;;2.97;2.50;;;17.40;47.80;;;;;;4973139;28;20257;-62
2022/01/30 03:05:00;;;;;;;4.82;2.50;;;17.40;48.00;;;;;;4973677;28;20294;-63
2022/01/30 03:07:28;;;;;;;2.75;2.13;;;17.40;47.80;;;;;;4973457;28;20197;-63
2022/01/30 03:09:57;;;;;;;3.78;2.47;;;17.30;47.60;;;;;;4973317;28;20202;-63
2022/01/30 03:12:25;;;;;;;3.90;2.47;;;17.30;47.60;;;;;;4973279;28;20229;-63
2022/01/30 03:14:54;;;;;;;4.18;2.83;;;17.30;47.70;;;;;;4973100;28;20206;-63
2022/01/30 03:17:21;;;;;;;3.15;2.35;;;17.30;47.60;;;;;;4972772;28;20193;-62
2022/01/30 03:19:48;;;;;;;5.05;2.70;;;17.30;47.70;;;;;;4974255;28;20198;-63
2022/01/30 03:22:16;;;;;;;4.65;2.50;;;17.30;47.60;;;;;;4972562;28;20616;-63
2022/01/30 03:24:43;;;;;;;3.25;2.42;;;17.30;47.60;;;;;;4972798;28;20245;-63
2022/01/30 03:27:19;;;;;;;3.83;2.55;;;17.30;47.70;;;;;;4972615;28;20194;-63
2022/01/30 03:30:03;;;;;;;2.95;2.58;;;17.30;47.60;;;;;;4972646;28;20285;-63
2022/01/30 03:33:04;;;;;;;3.60;2.50;;;17.30;47.80;;;;;;4953543;28;20214;-63
2022/01/30 03:35:34;;;;;;;3.72;2.28;;;17.20;47.60;;;;;;4972563;28;20194;-63
2022/01/30 03:38:02;;;;;;;3.67;2.35;;;17.30;47.90;;;;;;4972624;28;20738;-63
2022/01/30 03:40:30;;;;;;;3.85;2.28;;;17.20;47.80;;;;;;4972500;28;20201;-63
2022/01/30 03:42:57;;;;;;;4.28;2.58;;;17.20;47.70;;;;;;4973818;28;20253;-63
2022/01/30 03:45:25;;;;;;;5.50;2.95;;;17.20;47.80;;;;;;4975677;28;20198;-63
2022/01/30 03:47:55;;;;;;;2.72;2.10;;;17.20;48.30;;;;;;4976370;28;20206;-63
2022/01/30 03:50:34;;;;;;;2.75;2.20;;;17.20;47.80;;;;;;4976218;28;20580;-63
2022/01/30 03:53:01;;;;;;;4.22;2.50;;;17.20;47.80;;;;;;4976177;28;20214;-63
2022/01/30 03:55:29;;;;;;;3.28;2.20;;;17.20;47.80;;;;;;4976271;28;20288;-63
2022/01/30 03:57:56;;;;;;;2.15;1.95;;;17.20;47.80;;;;;;4977640;28;20197;-63
2022/01/30 04:00:24;;;;;;;2.13;1.90;;;17.20;47.90;;;;;;4976138;28;20208;-63
2022/01/30 04:02:59;;;;;;;3.60;2.42;;;17.20;47.80;;;;;;4975924;28;20705;-63
2022/01/30 04:05:27;;;;;;;3.67;2.22;;;17.10;47.80;;;;;;4976487;28;20213;-64
2022/01/30 04:07:56;;;;;;;3.50;1.80;;;17.10;47.90;;;;;;4977037;28;20297;-63
2022/01/30 04:10:41;;;;;;;3.40;2.15;;;17.10;48.00;;;;;;4977217;28;20245;-63
2022/01/30 04:13:20;;;;;;;3.00;2.10;;;17.10;47.90;;;;;;4977566;28;20210;-63
2022/01/30 04:16:10;;;;;;;2.53;2.08;;;17.10;47.90;;;;;;4976706;28;20627;-63
2022/01/30 04:19:07;;;;;;;2.90;2.10;;;17.10;47.60;;;;;;4908396;28;20224;-63
2022/01/30 04:21:53;;;;;;;2.75;2.00;;;17.10;47.60;;;;;;4976468;28;20204;-63
2022/01/30 04:24:40;;;;;;;2.47;2.10;;;17.10;47.50;;;;;;4978061;28;20321;-63
2022/01/30 04:27:39;;;;;;;2.67;1.90;;;17.10;47.40;;;;;;4924632;28;20198;-63
2022/01/30 04:30:26;;;;;;;1.92;1.77;;;17.10;47.30;;;;;;4977742;28;20668;-63
2022/01/30 04:33:09;;;;;;;2.72;2.00;;;17.20;47.30;;;;;;4976903;28;20284;-64
2022/01/30 04:36:06;;;;;;;3.08;2.05;;;17.10;47.10;;;;;;4975803;28;20206;-63
2022/01/30 04:38:56;;;;;;;2.08;1.70;;;17.20;47.70;;;;;;4976316;28;20224;-63
2022/01/30 04:42:21;;;;;;;2.95;1.88;;;17.20;46.90;;;;;;4975037;28;20198;-63
2022/01/30 04:57:21;;;;;;;3.85;2.17;;;17.50;46.50;;;;;;4952824;28;20198;-63
2022/01/30 05:00:23;;;;;;;2.72;2.17;;;17.50;46.10;;;;;;4976895;28;20771;-63
2022/01/30 05:03:28;;;;;;;5.60;2.63;;;17.60;46.20;;;;;;4975982;28;20226;-63
2022/01/30 05:06:17;;;;;;;3.65;2.10;;;17.60;46.00;;;;;;4975277;28;20193;-63
2022/01/30 05:09:13;;;;;;;5.45;2.35;;;17.50;45.80;;;;;;4940138;28;20204;-63
2022/01/30 05:12:15;;;;;;;3.45;2.50;;;17.50;45.70;;;;;;4964394;28;20222;-63
2022/01/30 05:15:01;;;;;;;3.13;2.10;;;17.50;45.80;;;;;;4976667;28;20324;-63
2022/01/30 05:17:45;;;;;;;2.58;2.17;;;17.50;45.80;;;;;;4974971;28;20209;-63
2022/01/30 05:20:18;;;;;;;4.78;2.28;;;17.50;45.60;;;;;;4974809;28;20682;-63
2022/01/30 05:22:57;;;;;;;4.05;2.38;;;17.50;45.50;;;;;;4974688;28;20714;-63
2022/01/30 05:25:51;;;;;;;3.65;2.20;;;17.50;45.30;;;;;;4952712;28;20205;-62
2022/01/30 05:28:22;;;;;;;2.75;1.98;;;17.50;45.40;;;;;;4974559;28;20753;-63
2022/01/30 05:31:08;;;;;;;4.05;2.00;;;17.60;45.50;;;;;;4976028;28;20190;-64
2022/01/30 05:33:55;;;;;;;3.72;2.13;;;17.60;45.10;;;;;;4975565;28;20729;-63
2022/01/30 05:36:45;;;;;;;3.33;2.30;;;17.70;45.20;;;;;;4939130;28;20198;-63
2022/01/30 05:39:31;;;;;;;3.03;2.20;;;17.70;45.00;;;;;;4976133;28;20237;-63
2022/01/30 05:42:18;;;;;;;4.22;2.33;;;17.80;44.70;;;;;;4975531;28;20272;-63
2022/01/30 05:45:00;;;;;;;3.53;2.45;;;17.80;44.60;;;;;;4974473;28;20200;-63
2022/01/30 05:47:52;;;;;;;4.00;2.33;;;17.80;44.40;;;;;;4974412;28;20216;-63
2022/01/30 05:50:49;;;;;;;3.30;2.35;;;17.90;45.00;;;;;;4906395;28;20204;-63
2022/01/30 05:53:27;;;;;;;4.72;2.60;;;17.90;44.20;;;;;;4973981;28;20218;-62
2022/01/30 05:56:03;;;;;;;3.83;2.30;;;17.90;44.10;;;;;;4974013;28;20205;-63
2022/01/30 05:58:30;;;;;;;4.35;2.47;;;17.90;44.10;;;;;;4974215;28;20194;-64
2022/01/30 06:01:06;;;;;;;3.10;2.30;;;17.90;44.10;;;;;;4973819;28;20232;-63
2022/01/30 06:03:34;;;;;;;4.10;2.30;;;17.90;44.10;;;;;;4974828;28;20217;-63
2022/01/30 06:06:02;;;;;;;4.70;2.40;;;17.90;44.20;;;;;;4973832;28;20248;-63
2022/01/30 06:08:40;;;;;;;4.90;2.10;;;17.90;44.10;;;;;;4972678;28;20293;-63
2022/01/30 06:11:08;;;;;;;3.55;2.30;;;17.90;44.10;;;;;;4973877;28;20540;-63
2022/01/30 06:13:35;;;;;;;2.38;1.90;;;17.90;43.90;;;;;;4973655;28;20220;-63
2022/01/30 06:16:02;;;;;;;4.45;2.25;;;17.90;44.00;;;;;;4973789;28;20201;-63
2022/01/30 06:18:31;;;;;;;5.15;2.25;;;17.90;44.60;;;;;;4973579;28;20293;-63
2022/01/30 06:21:17;;;;;;;4.93;2.50;;;17.90;43.70;;;;;;4975170;28;20185;-63
2022/01/30 06:24:22;;;;;;;2.88;1.95;;;17.90;43.60;;;;;;4934296;29;20261;-63
2022/01/30 06:27:08;;;;;;;3.63;2.30;;;18.00;43.60;;;;;;4934795;29;20723;-63
2022/01/30 06:29:54;;;;;;;3.42;2.40;;;18.00;43.50;;;;;;4964244;28;20228;-63
2022/01/30 06:32:40;;;;;;;2.78;1.88;;;18.00;43.60;;;;;;4975861;28;20237;-62
2022/01/30 06:35:27;;;;;;;3.45;2.42;;;18.00;43.50;;;;;;4975377;28;20233;-62
2022/01/30 06:38:15;;;;;;;3.78;2.22;;;18.00;43.40;;;;;;4968161;28;20210;-63
2022/01/30 06:41:00;;;;;;;2.47;2.10;;;18.10;43.50;;;;;;4975109;28;20185;-63
2022/01/30 06:43:46;;;;;;;3.70;2.10;;;18.10;43.30;;;;;;4974906;28;20597;-63
2022/01/30 06:46:32;;;;;;;3.25;2.20;;;18.10;43.20;;;;;;4974794;28;20185;-63
2022/01/30 06:49:23;;;;;;;3.83;2.25;;;18.10;43.00;;;;;;4938154;28;20717;-63
2022/01/30 06:52:20;;;;;;;4.10;2.30;;;18.10;43.20;;;;;;4955613;28;20638;-62
2022/01/30 06:54:53;;;;;;;3.75;2.20;;;18.10;43.10;;;;;;4974345;28;20178;-63
2022/01/30 06:57:44;;;;;;;3.85;2.40;;;18.10;43.60;;;;;;4974439;28;20210;-62
2022/01/30 07:00:29;;;;;;;3.78;2.28;;;18.20;43.40;;;;;;4974896;28;20201;-63
2022/01/30 07:03:15;;;;;;;4.38;2.30;;;18.10;42.80;;;;;;5045243;22;20236;-69
2022/01/30 07:06:05;;;;;;;3.78;2.10;;;18.10;42.70;;;;;;5032309;28;20203;-68
2022/01/30 07:08:38;;;;;;;2.55;1.80;;;18.20;42.90;;;;;;5031868;28;20238;-67
2022/01/30 07:11:05;;;;;;;3.60;2.25;;;18.20;43.60;;;;;;5031747;28;20660;-68
2022/01/30 07:13:32;;;;;;;3.03;1.90;;;18.10;43.70;;;;;;5031896;28;20212;-68
2022/01/30 07:15:59;;;;;;;3.72;2.20;;;18.10;43.10;;;;;;5031716;28;20268;-70
2022/01/30 07:18:27;;;;;;;3.28;2.00;;;18.10;42.80;;;;;;5032675;28;20614;-70
2022/01/30 07:20:55;;;;;;;1.85;1.73;;;18.10;43.60;;;;;;5032129;28;20211;-71
2022/01/30 07:23:22;;;;;;;4.15;2.00;;;18.20;43.30;;;;;;5031661;28;20238;-69
2022/01/30 07:25:51;;;;;;;2.83;1.92;;;18.10;43.10;;;;;;5031981;28;20563;-68
2022/01/30 07:28:18;;;;;;;2.70;2.00;;;18.20;43.00;;;;;;5033106;28;20268;-69
2022/01/30 07:30:45;;;;;;;3.70;2.25;;;18.10;43.00;;;;;;5031569;28;20202;-69
2022/01/30 07:33:12;;;;;;;3.65;2.08;;;18.20;43.10;;;;;;5033106;28;20194;-69
2022/01/30 07:35:41;;;;;;;2.67;1.90;;;18.20;43.10;;;;;;5031726;28;20290;-68
2022/01/30 07:38:08;;;;;;;3.67;2.10;;;18.20;43.00;;;;;;5031927;28;20691;-69
2022/01/30 07:40:36;;;;;;;3.80;2.25;;;18.20;43.10;;;;;;5033156;28;20203;-68
2022/01/30 07:43:04;;;;;;;2.67;1.85;;;18.20;42.90;;;;;;5032069;28;20216;-68
2022/01/30 07:45:32;;;;;;;4.88;2.25;;;18.10;43.20;;;;;;5032139;28;20272;-67
2022/01/30 07:48:01;;;;;;;4.20;2.35;;;18.20;42.90;;;;;;5031939;28;20583;-69
2022/01/30 07:50:28;;;;;;;2.85;1.98;;;18.20;42.80;;;;;;5033358;28;20254;-67
2022/01/30 07:52:55;;;;;;;2.67;2.10;;;18.20;42.80;;;;;;5031477;28;20219;-70
2022/01/30 07:55:22;;;;;;;3.15;2.00;;;18.20;42.60;;;;;;5032737;28;20198;-71
2022/01/30 07:57:50;;;;;;;3.80;2.10;;;18.30;42.90;;;;;;5032614;28;20242;-69
2022/01/30 08:00:18;;;;;;;4.00;2.28;;;18.20;42.70;;;;;;5032375;28;20275;-70
2022/01/30 08:02:47;;;;;;;2.58;1.85;;;18.30;42.70;;;;;;5031046;28;20208;-69
2022/01/30 08:05:15;;;;;;;2.78;1.88;;;18.30;42.60;;;;;;5031174;28;20227;-68
2022/01/30 08:07:42;;;;;;;5.55;2.30;;;18.30;42.60;;;;;;5031360;28;20200;-67
2022/01/30 08:10:09;;;;;;;4.22;2.13;;;18.30;42.30;;;;;;5031194;28;20283;-68
2022/01/30 08:12:38;;;;;;;4.32;2.10;;;18.30;42.20;;;;;;5031028;28;20235;-69
2022/01/30 08:15:06;;;;;;;4.13;2.10;;;18.40;42.50;;;;;;5031112;28;20224;-68
2022/01/30 08:17:36;;;;;;;4.40;2.20;;;18.40;42.40;;;;;;5031363;28;20220;-67
2022/01/30 08:20:04;;;;;;;5.90;2.20;;;18.40;42.10;;;;;;5031351;28;20287;-67
2022/01/30 08:22:32;;;;;;;3.95;2.22;;;18.40;42.00;;;;;;5031114;28;20196;-67
2022/01/30 08:24:58;;;;;;;3.22;2.15;;;18.40;41.90;;;;;;5032957;28;20307;-69
2022/01/30 08:27:26;;;;;;;3.67;2.08;;;18.40;41.90;;;;;;5031249;28;20200;-68
2022/01/30 08:29:53;;;;;;;3.38;2.10;;;18.50;41.80;;;;;;5031188;28;20206;-71
2022/01/30 08:32:19;;;;;;;4.25;2.45;;;18.50;41.70;;;;;;5034112;28;20275;-69
2022/01/30 08:34:48;;;;;;;4.45;2.30;;;18.50;42.00;;;;;;5034395;28;20226;-67
2022/01/30 08:37:16;;;;;;;3.90;2.22;;;18.60;41.40;;;;;;5034385;28;20211;-69
2022/01/30 08:39:43;;;;;;;3.50;2.10;;;18.60;41.50;;;;;;5034488;28;20204;-68
2022/01/30 08:42:10;;;;;;;4.18;1.90;;;18.60;42.10;;;;;;5034503;28;20254;-67
2022/01/30 08:44:37;;;;;;;3.30;2.10;;;18.70;41.80;;;;;;5034484;28;20234;-70
2022/01/30 08:47:05;;;;;;;5.70;2.20;;;18.70;41.50;;;;;;5034579;28;20279;-69
2022/01/30 08:49:32;;;;;;;4.00;2.30;;;18.70;41.20;;;;;;5034184;28;20200;-70
2022/01/30 08:52:01;;;;;;;4.22;2.15;;;18.70;41.00;;;;;;5034557;28;20204;-69
2022/01/30 08:54:28;;;;;;;3.47;2.10;;;18.80;41.40;;;;;;5034181;28;20216;-68
2022/01/30 08:56:55;;;;;;;4.25;2.20;;;18.80;41.80;;;;;;5034545;28;20209;-68
2022/01/30 08:59:23;;;;;;;4.55;2.20;;;18.80;41.20;;;;;;5034490;28;20200;-71
2022/01/30 09:01:50;;;;;;;3.15;1.92;;;18.80;40.70;;;;;;5035236;28;20196;-69
2022/01/30 09:04:17;;;;;;;3.28;2.20;;;18.80;40.90;;;;;;5034671;28;20220;-67
2022/01/30 09:06:44;;;;;;;3.95;2.10;;;18.80;40.90;;;;;;5034157;28;20198;-67
2022/01/30 09:09:13;;;;;;;3.42;2.05;;;18.90;40.70;;;;;;5034234;28;20246;-69
2022/01/30 09:11:40;;;;;;;4.25;2.30;;;18.90;40.80;;;;;;5034175;28;20207;-67
2022/01/30 09:14:07;;;;;;;4.97;2.30;;;18.90;40.40;;;;;;5034335;28;20754;-68
2022/01/30 09:16:35;;;;;;;3.05;2.17;;;18.90;40.80;;;;;;5034004;28;20285;-68
2022/01/30 09:19:02;;;;;;;3.78;1.98;;;18.90;41.00;;;;;;5035197;28;20188;-69
2022/01/30 09:21:29;;;;;;;4.53;2.38;;;18.90;40.40;;;;;;5033863;28;20661;-69
2022/01/30 09:23:56;;;;;;;3.42;1.88;;;19.00;40.50;;;;;;5033855;28;20239;-67
2022/01/30 09:26:24;;;;;;;4.10;2.15;;;19.00;40.50;;;;;;5033882;28;20204;-69
2022/01/30 09:28:51;;;;;;;3.63;2.20;;;19.00;40.50;;;;;;5033823;28;20232;-69
2022/01/30 09:31:18;;;;;;;3.72;2.20;;;19.00;40.50;;;;;;5033646;28;20298;-67
2022/01/30 09:33:46;;;;;;;3.75;2.00;;;19.00;40.10;;;;;;5033455;28;20285;-71
2022/01/30 09:36:13;;;;;;;3.28;2.00;;;19.00;40.20;;;;;;5033718;28;20294;-69
2022/01/30 09:38:41;;;;;;;2.40;2.00;;;19.00;40.30;;;;;;5034738;28;20189;-69
2022/01/30 09:41:08;;;;;;;4.43;2.45;;;19.00;40.30;;;;;;5034370;28;20196;-69
2022/01/30 09:43:36;;;;;;;4.28;2.28;;;19.10;40.60;;;;;;5032983;28;20222;-69
2022/01/30 09:46:04;;;;;;;2.47;1.88;;;19.00;40.40;;;;;;5034293;28;20199;-70
2022/01/30 09:48:31;;;;;;;4.57;2.42;;;19.10;40.60;;;;;;5032985;28;20227;-71
2022/01/30 09:51:20;;;;;;;3.45;2.10;;;19.00;40.10;;;;;;5035332;28;20215;-68
2022/01/30 09:53:47;;;;;;;5.15;2.22;;;19.10;40.10;;;;;;5033089;28;20261;-69
2022/01/30 09:56:14;;;;;;;4.72;2.33;;;19.10;40.00;;;;;;5033221;28;20192;-70
2022/01/30 09:58:42;;;;;;;3.92;2.17;;;19.20;40.00;;;;;;5033334;28;20196;-68
2022/01/30 10:01:10;;;;;;;2.50;2.00;;;19.20;40.30;;;;;;5033024;28;20206;-69
2022/01/30 10:03:37;;;;;;;5.07;2.50;;;19.20;40.60;;;;;;5032597;28;20223;-70
2022/01/30 10:06:11;;;;;;;5.32;2.58;;;19.20;42.50;;;;;;5033240;28;20572;-68
2022/01/30 10:08:43;;;;;;;4.95;2.40;;;19.10;40.50;;;;;;5033249;28;20192;-67
2022/01/30 10:11:27;;;;;;;4.88;2.33;;;19.10;41.90;;;;;;5034091;28;20259;-70
2022/01/30 10:14:04;;;;;;;3.75;2.22;;;19.10;42.00;;;;;;5032649;28;20227;-69
2022/01/30 10:16:35;;;;;;;4.57;2.53;;;19.10;42.00;;;;;;5032752;28;20276;-69
2022/01/30 10:19:09;;;;;;;3.83;2.10;;;19.10;42.60;;;;;;5032731;28;20278;-68
2022/01/30 10:21:36;;;;;;;4.22;2.28;;;19.10;43.10;;;;;;5033742;28;20188;-68
2022/01/30 10:24:24;;;;;;;8.80;2.60;;;19.10;42.50;;;;;;5033785;28;20702;-70
2022/01/30 10:26:52;;;;;;;43.67;17.98;;;19.20;42.90;;;;;;5034127;28;20688;-69
2022/01/30 10:29:21;;;;;;;338.58;118.35;;;19.20;43.40;;;;;;5032370;28;20196;-69
2022/01/30 10:31:59;;;;;;;411.83;157.13;;;19.20;49.00;;;;;;5032523;28;20215;-69
2022/01/30 10:34:26;;;;;;;199.65;71.47;;;19.20;49.80;;;;;;5032291;28;20660;-68
2022/01/30 10:37:12;;;;;;;152.80;52.33;;;19.30;49.00;;;;;;5032274;28;20249;-68
2022/01/30 10:39:53;;;;;;;115.20;44.05;;;19.30;47.60;;;;;;5033717;28;20185;-68
2022/01/30 10:42:35;;;;;;;116.47;44.50;;;19.30;46.70;;;;;;5032117;28;20208;-68
2022/01/30 10:45:05;;;;;;;121.53;44.50;;;19.40;46.60;;;;;;5032031;28;20227;-69
2022/01/30 10:47:32;;;;;;;100.15;36.92;;;19.40;46.70;;;;;;5032254;28;20200;-69
2022/01/30 10:49:59;;;;;;;96.68;40.38;;;19.40;46.10;;;;;;5032211;28;20203;-71
2022/01/30 10:52:27;;;;;;;90.03;37.70;;;19.40;46.10;;;;;;5032069;28;20196;-67
2022/01/30 10:55:01;;;;;;;75.05;35.67;;;19.40;45.60;;;;;;5032657;28;20719;-68
2022/01/30 10:57:28;;;;;;;85.35;35.40;;;19.40;45.70;;;;;;5033214;28;20282;-68
2022/01/30 10:59:56;;;;;;;84.60;36.40;;;19.40;45.90;;;;;;5033391;28;20192;-68
2022/01/30 11:02:25;;;;;;;83.90;36.75;;;19.40;45.70;;;;;;5032125;28;20262;-68
2022/01/30 11:05:02;;;;;;;95.97;37.17;;;19.40;45.10;;;;;;5031889;28;20231;-69
2022/01/30 11:07:30;;;;;;;90.00;37.50;;;19.50;45.30;;;;;;5032155;28;20199;-70
2022/01/30 11:10:01;;;;;;;69.75;31.85;;;19.50;45.40;;;;;;5033248;28;20192;-68
2022/01/30 11:12:34;;;;;;;72.93;33.78;;;19.50;46.00;;;;;;5033277;28;20180;-68
2022/01/30 11:15:16;;;;;;;82.47;34.47;;;19.50;45.80;;;;;;5031888;28;20212;-71
2022/01/30 11:17:45;;;;;;;89.63;36.72;;;19.60;45.00;;;;;;5031791;28;20196;-69
2022/01/30 11:20:13;;;;;;;74.68;32.65;;;19.60;44.80;;;;;;5031867;28;20664;-67
2022/01/30 11:22:40;;;;;;;75.45;32.00;;;19.70;45.30;;;;;;5031982;28;20210;-68
2022/01/30 11:25:09;;;;;;;72.18;31.88;;;19.70;45.40;;;;;;5032290;28;20376;-71
2022/01/30 11:27:36;;;;;;;61.08;26.25;;;19.70;45.20;;;;;;5032121;28;20203;-69
2022/01/30 11:30:05;;;;;;;49.58;23.27;;;19.70;43.70;;;;;;5032368;28;20207;-69
2022/01/30 11:32:32;;;;;;;54.30;22.38;;;19.70;42.50;;;;;;5032225;28;20734;-69
2022/01/30 11:35:00;;;;;;;49.63;20.50;;;19.80;42.40;;;;;;5033291;28;20204;-69
2022/01/30 11:37:28;;;;;;;44.78;20.23;;;19.80;42.20;;;;;;5032102;28;20192;-69
2022/01/30 11:39:55;;;;;;;42.80;18.77;;;19.80;42.10;;;;;;5033060;28;20207;-69
2022/01/30 11:42:23;;;;;;;40.45;18.48;;;19.80;41.50;;;;;;5032772;28;20200;-69
2022/01/30 11:44:50;;;;;;;41.13;18.27;;;19.80;41.40;;;;;;5032763;28;20216;-71
2022/01/30 11:47:24;;;;;;;37.38;16.15;;;19.80;41.30;;;;;;5034539;28;20200;-69
2022/01/30 11:50:09;;;;;;;39.42;17.73;;;19.80;41.10;;;;;;5033370;28;20299;-70
2022/01/30 11:53:02;;;;;;;32.20;16.20;;;19.80;41.40;;;;;;5032528;28;20241;-67
2022/01/30 11:55:43;;;;;;;37.00;16.58;;;19.80;41.50;;;;;;5034354;28;20229;-67
2022/01/30 11:58:49;;;;;;;37.17;15.60;;;19.80;41.50;;;;;;5036246;28;20275;-72
2022/01/30 12:01:38;;;;;;;30.65;14.43;;;19.90;41.20;;;;;;5033814;28;20200;-68
2022/01/30 12:04:16;;;;;;;30.02;13.32;;;19.90;41.30;;;;;;5031824;28;20216;-69
2022/01/30 12:06:47;;;;;;;28.13;13.20;;;19.90;41.10;;;;;;5035381;28;20164;-70
2022/01/30 12:09:29;;;;;;;26.98;12.13;;;20.00;41.20;;;;;;5035900;28;20204;-67
2022/01/30 12:12:07;;;;;;;29.45;12.40;;;20.00;41.10;;;;;;5035888;28;20284;-70
2022/01/30 12:14:55;;;;;;;24.33;11.63;;;20.10;41.60;;;;;;5037736;28;20203;-72
2022/01/30 12:17:44;;;;;;;26.70;11.82;;;20.10;40.70;;;;;;5037678;28;20291;-70
2022/01/30 12:20:12;;;;;;;24.42;11.27;;;20.20;41.00;;;;;;5036293;28;20542;-68
2022/01/30 12:22:41;;;;;;;23.58;10.75;;;20.20;40.70;;;;;;5035852;28;20291;-70
2022/01/30 12:25:34;;;;;;;26.13;10.30;;;20.20;40.30;;;;;;5035260;28;20350;-69
2022/01/30 12:28:05;;;;;;;22.25;10.13;;;20.20;40.30;;;;;;5035052;28;20215;-68
2022/01/30 12:30:43;;;;;;;21.85;9.25;;;20.20;40.30;;;;;;5036559;28;20184;-69
2022/01/30 12:33:42;;;;;;;21.40;9.80;;;20.20;40.10;;;;;;5035143;28;20213;-68
2022/01/30 12:36:17;;;;;;;19.80;9.40;;;20.20;40.30;;;;;;5034902;28;20653;-69
2022/01/30 12:38:46;;;;;;;20.30;9.00;;;20.30;40.30;;;;;;5034849;28;20204;-67
2022/01/30 12:41:14;;;;;;;21.60;9.00;;;20.30;40.40;;;;;;5033930;28;20441;-70
2022/01/30 12:43:44;;;;;;;17.65;8.90;;;20.40;39.70;;;;;;5035046;28;20252;-69
2022/01/30 12:46:11;;;;;;;16.42;8.15;;;20.40;40.20;;;;;;5034732;28;20208;-68
2022/01/30 12:48:38;;;;;;;17.20;8.32;;;20.40;40.10;;;;;;5036417;28;20271;-68
2022/01/30 12:51:12;;;;;;;18.83;8.73;;;20.40;40.30;;;;;;5034768;28;20266;-68
2022/01/30 12:53:39;;;;;;;21.55;8.38;;;20.40;40.50;;;;;;5034741;28;20606;-70
2022/01/30 12:56:07;;;;;;;16.73;7.97;;;20.40;40.60;;;;;;5035867;28;20184;-70
2022/01/30 12:58:35;;;;;;;15.05;7.65;;;20.40;40.50;;;;;;5034437;28;20258;-70
2022/01/30 13:01:07;;;;;;;16.55;8.07;;;20.40;40.20;;;;;;5034425;28;20211;-68
2022/01/30 13:03:35;;;;;;;18.15;7.65;;;20.40;40.20;;;;;;5034290;28;20246;-70
2022/01/30 13:06:01;;;;;;;16.83;6.90;;;20.50;40.20;;;;;;5034067;28;20220;-70
2022/01/30 13:08:47;;;;;;;17.48;7.50;;;20.50;39.80;;;;;;5035868;28;20279;-70
2022/01/30 13:11:22;;;;;;;15.90;6.82;;;20.50;39.90;;;;;;5034669;28;20198;-70
2022/01/30 13:13:55;;;;;;;16.90;6.88;;;20.50;39.90;;;;;;5034644;28;20230;-73
2022/01/30 13:16:24;;;;;;;12.43;6.38;;;20.50;39.60;;;;;;5033941;28;20200;-70
2022/01/30 13:18:51;;;;;;;13.43;6.35;;;20.50;39.70;;;;;;5034562;28;20569;-72
2022/01/30 13:21:25;;;;;;;14.25;6.20;;;20.50;39.60;;;;;;5034791;28;20204;-71
2022/01/30 13:23:52;;;;;;;13.43;6.45;;;20.50;39.70;;;;;;5034172;28;20715;-70
2022/01/30 13:26:35;;;;;;;13.65;6.65;;;20.50;39.90;;;;;;5034394;28;20219;-71
2022/01/30 13:29:02;;;;;;;16.50;6.18;;;20.60;39.90;;;;;;5034376;28;20207;-69
2022/01/30 13:31:31;;;;;;;14.20;5.82;;;20.60;39.60;;;;;;5034586;28;20299;-70
2022/01/30 13:34:10;;;;;;;12.20;5.32;;;20.60;39.70;;;;;;5034524;28;20224;-70
2022/01/30 13:36:37;;;;;;;11.73;5.75;;;20.60;39.50;;;;;;5036701;28;20192;-71
2022/01/30 13:39:08;;;;;;;12.93;5.85;;;20.60;39.60;;;;;;5035784;28;20200;-71
2022/01/30 13:41:46;;;;;;;13.38;6.20;;;20.60;39.50;;;;;;5034663;28;20188;-70
2022/01/30 13:44:22;;;;;;;12.68;5.63;;;20.60;39.10;;;;;;5034461;28;20216;-70
2022/01/30 13:47:00;;;;;;;11.65;5.78;;;20.60;39.10;;;;;;5034165;28;20306;-68
2022/01/30 13:49:27;;;;;;;15.00;6.05;;;20.50;39.10;;;;;;5035662;28;20200;-70